sensor_id;sensor_type;location;lat;lon;timestamp;P1;durP1;ratioP1;P2;durP2;ratioP2
80852;SDS011;70270;43.434;28.338;2023-08-24T00:01:04;27.55;;;23.73;;
80852;SDS011;70270;43.434;28.338;2023-08-24T00:03:49;29.08;;;24.15;;
80852;SDS011;70270;43.434;28.338;2023-08-24T00:06:33;27.50;;;24.23;;
80852;SDS011;70270;43.434;28.338;2023-08-24T00:09:18;27.63;;;24.17;;
80852;SDS011;70270;43.434;28.338;2023-08-24T00:12:03;25.40;;;22.30;;
80852;SDS011;70270;43.434;28.338;2023-08-24T00:14:48;25.80;;;22.98;;
80852;SDS011;70270;43.434;28.338;2023-08-24T00:17:32;25.45;;;22.42;;
80852;SDS011;70270;43.434;28.338;2023-08-24T00:20:22;28.48;;;21.98;;
80852;SDS011;70270;43.434;28.338;2023-08-24T00:23:07;25.10;;;22.50;;
80852;SDS011;70270;43.434;28.338;2023-08-24T00:25:54;25.98;;;22.40;;
80852;SDS011;70270;43.434;28.338;2023-08-24T00:28:42;26.98;;;22.60;;
80852;SDS011;70270;43.434;28.338;2023-08-24T00:31:27;25.90;;;22.13;;
80852;SDS011;70270;43.434;28.338;2023-08-24T00:34:12;25.00;;;22.23;;
80852;SDS011;70270;43.434;28.338;2023-08-24T00:36:58;20.80;;;18.60;;
80852;SDS011;70270;43.434;28.338;2023-08-24T00:39:47;26.50;;;23.38;;
80852;SDS011;70270;43.434;28.338;2023-08-24T00:42:32;23.65;;;20.70;;
80852;SDS011;70270;43.434;28.338;2023-08-24T00:45:17;29.65;;;23.38;;
80852;SDS011;70270;43.434;28.338;2023-08-24T00:48:02;24.05;;;21.35;;
80852;SDS011;70270;43.434;28.338;2023-08-24T00:53:32;23.80;;;19.60;;
80852;SDS011;70270;43.434;28.338;2023-08-24T00:56:17;24.55;;;21.88;;
80852;SDS011;70270;43.434;28.338;2023-08-24T00:59:11;24.38;;;21.80;;
80852;SDS011;70270;43.434;28.338;2023-08-24T01:01:56;27.00;;;23.02;;
80852;SDS011;70270;43.434;28.338;2023-08-24T01:04:41;24.50;;;21.40;;
80852;SDS011;70270;43.434;28.338;2023-08-24T01:07:35;23.52;;;20.83;;
80852;SDS011;70270;43.434;28.338;2023-08-24T01:10:24;22.15;;;19.63;;
80852;SDS011;70270;43.434;28.338;2023-08-24T01:13:27;25.80;;;20.10;;
80852;SDS011;70270;43.434;28.338;2023-08-24T01:16:26;24.83;;;20.13;;
80852;SDS011;70270;43.434;28.338;2023-08-24T01:19:20;24.67;;;19.95;;
80852;SDS011;70270;43.434;28.338;2023-08-24T01:25:46;22.13;;;19.67;;
80852;SDS011;70270;43.434;28.338;2023-08-24T01:28:42;22.58;;;19.88;;
80852;SDS011;70270;43.434;28.338;2023-08-24T01:31:33;26.02;;;20.58;;
80852;SDS011;70270;43.434;28.338;2023-08-24T01:34:18;25.25;;;21.02;;
80852;SDS011;70270;43.434;28.338;2023-08-24T01:37:06;22.25;;;19.55;;
80852;SDS011;70270;43.434;28.338;2023-08-24T01:40:10;23.13;;;20.02;;
80852;SDS011;70270;43.434;28.338;2023-08-24T01:45:47;24.30;;;20.38;;
80852;SDS011;70270;43.434;28.338;2023-08-24T01:48:37;22.67;;;20.27;;
80852;SDS011;70270;43.434;28.338;2023-08-24T01:51:23;23.20;;;20.63;;
80852;SDS011;70270;43.434;28.338;2023-08-24T01:54:09;23.55;;;21.05;;
80852;SDS011;70270;43.434;28.338;2023-08-24T01:56:58;23.17;;;20.02;;
80852;SDS011;70270;43.434;28.338;2023-08-24T01:59:42;25.10;;;20.88;;
80852;SDS011;70270;43.434;28.338;2023-08-24T02:02:27;28.02;;;21.95;;
80852;SDS011;70270;43.434;28.338;2023-08-24T02:05:12;25.92;;;20.95;;
80852;SDS011;70270;43.434;28.338;2023-08-24T02:07:57;23.15;;;19.65;;
80852;SDS011;70270;43.434;28.338;2023-08-24T02:10:43;24.45;;;21.70;;
80852;SDS011;70270;43.434;28.338;2023-08-24T02:13:29;25.08;;;21.02;;
80852;SDS011;70270;43.434;28.338;2023-08-24T02:16:14;25.95;;;21.17;;
80852;SDS011;70270;43.434;28.338;2023-08-24T02:18:58;31.40;;;23.85;;
80852;SDS011;70270;43.434;28.338;2023-08-24T02:21:43;25.75;;;20.35;;
80852;SDS011;70270;43.434;28.338;2023-08-24T02:24:31;23.02;;;20.52;;
80852;SDS011;70270;43.434;28.338;2023-08-24T02:27:18;31.25;;;21.00;;
80852;SDS011;70270;43.434;28.338;2023-08-24T02:30:02;24.88;;;20.75;;
80852;SDS011;70270;43.434;28.338;2023-08-24T02:35:34;35.90;;;29.40;;
80852;SDS011;70270;43.434;28.338;2023-08-24T02:38:18;36.08;;;30.10;;
80852;SDS011;70270;43.434;28.338;2023-08-24T02:41:04;27.95;;;21.60;;
80852;SDS011;70270;43.434;28.338;2023-08-24T02:43:49;25.17;;;21.85;;
80852;SDS011;70270;43.434;28.338;2023-08-24T02:46:34;24.27;;;21.70;;
80852;SDS011;70270;43.434;28.338;2023-08-24T02:49:22;25.52;;;21.23;;
80852;SDS011;70270;43.434;28.338;2023-08-24T02:52:07;27.05;;;22.63;;
80852;SDS011;70270;43.434;28.338;2023-08-24T02:54:53;24.40;;;20.88;;
80852;SDS011;70270;43.434;28.338;2023-08-24T02:57:38;28.90;;;21.50;;
80852;SDS011;70270;43.434;28.338;2023-08-24T03:00:22;25.17;;;20.63;;
80852;SDS011;70270;43.434;28.338;2023-08-24T03:03:08;27.55;;;21.30;;
80852;SDS011;70270;43.434;28.338;2023-08-24T03:05:57;24.70;;;21.35;;
80852;SDS011;70270;43.434;28.338;2023-08-24T03:08:47;28.02;;;22.13;;
80852;SDS011;70270;43.434;28.338;2023-08-24T03:11:32;28.05;;;22.35;;
80852;SDS011;70270;43.434;28.338;2023-08-24T03:14:17;42.33;;;32.85;;
80852;SDS011;70270;43.434;28.338;2023-08-24T03:17:03;33.78;;;29.35;;
80852;SDS011;70270;43.434;28.338;2023-08-24T03:19:51;25.15;;;22.45;;
80852;SDS011;70270;43.434;28.338;2023-08-24T03:22:36;26.30;;;22.33;;
80852;SDS011;70270;43.434;28.338;2023-08-24T03:25:25;30.60;;;23.10;;
80852;SDS011;70270;43.434;28.338;2023-08-24T03:28:10;31.20;;;23.42;;
80852;SDS011;70270;43.434;28.338;2023-08-24T03:30:55;31.45;;;24.33;;
80852;SDS011;70270;43.434;28.338;2023-08-24T03:33:40;27.50;;;23.67;;
80852;SDS011;70270;43.434;28.338;2023-08-24T03:36:24;38.78;;;25.23;;
80852;SDS011;70270;43.434;28.338;2023-08-24T03:39:11;35.85;;;24.85;;
80852;SDS011;70270;43.434;28.338;2023-08-24T03:41:56;37.00;;;24.80;;
80852;SDS011;70270;43.434;28.338;2023-08-24T03:44:40;42.22;;;25.08;;
80852;SDS011;70270;43.434;28.338;2023-08-24T03:47:25;35.30;;;24.85;;
80852;SDS011;70270;43.434;28.338;2023-08-24T03:50:10;35.10;;;23.42;;
80852;SDS011;70270;43.434;28.338;2023-08-24T03:52:55;32.35;;;24.20;;
80852;SDS011;70270;43.434;28.338;2023-08-24T03:55:40;29.92;;;22.95;;
80852;SDS011;70270;43.434;28.338;2023-08-24T03:58:25;31.80;;;23.90;;
80852;SDS011;70270;43.434;28.338;2023-08-24T04:01:11;27.90;;;22.80;;
80852;SDS011;70270;43.434;28.338;2023-08-24T04:03:57;34.97;;;24.83;;
80852;SDS011;70270;43.434;28.338;2023-08-24T04:06:42;30.50;;;23.63;;
80852;SDS011;70270;43.434;28.338;2023-08-24T04:09:27;30.00;;;23.98;;
80852;SDS011;70270;43.434;28.338;2023-08-24T04:14:58;26.30;;;22.10;;
80852;SDS011;70270;43.434;28.338;2023-08-24T04:17:44;31.20;;;22.85;;
80852;SDS011;70270;43.434;28.338;2023-08-24T04:20:29;42.30;;;27.00;;
80852;SDS011;70270;43.434;28.338;2023-08-24T04:23:14;37.60;;;25.48;;
80852;SDS011;70270;43.434;28.338;2023-08-24T04:25:58;36.85;;;25.50;;
80852;SDS011;70270;43.434;28.338;2023-08-24T04:28:43;31.67;;;23.35;;
80852;SDS011;70270;43.434;28.338;2023-08-24T04:31:27;41.85;;;30.33;;
80852;SDS011;70270;43.434;28.338;2023-08-24T04:34:12;34.55;;;25.40;;
80852;SDS011;70270;43.434;28.338;2023-08-24T04:36:57;21.17;;;18.95;;
80852;SDS011;70270;43.434;28.338;2023-08-24T04:39:41;20.50;;;18.30;;
80852;SDS011;70270;43.434;28.338;2023-08-24T04:42:26;23.35;;;18.10;;
80852;SDS011;70270;43.434;28.338;2023-08-24T04:45:11;19.42;;;16.33;;
80852;SDS011;70270;43.434;28.338;2023-08-24T04:47:55;22.08;;;17.27;;
80852;SDS011;70270;43.434;28.338;2023-08-24T04:50:43;24.25;;;16.33;;
80852;SDS011;70270;43.434;28.338;2023-08-24T04:53:29;21.98;;;16.83;;
80852;SDS011;70270;43.434;28.338;2023-08-24T04:56:14;80.13;;;50.33;;
80852;SDS011;70270;43.434;28.338;2023-08-24T04:59:00;42.50;;;30.83;;
80852;SDS011;70270;43.434;28.338;2023-08-24T05:01:46;52.80;;;34.75;;
80852;SDS011;70270;43.434;28.338;2023-08-24T05:04:33;56.95;;;37.30;;
80852;SDS011;70270;43.434;28.338;2023-08-24T05:07:18;35.35;;;26.08;;
80852;SDS011;70270;43.434;28.338;2023-08-24T05:10:02;33.78;;;24.65;;
80852;SDS011;70270;43.434;28.338;2023-08-24T05:12:47;26.60;;;20.55;;
80852;SDS011;70270;43.434;28.338;2023-08-24T05:15:32;25.58;;;19.80;;
80852;SDS011;70270;43.434;28.338;2023-08-24T05:18:19;26.38;;;17.05;;
80852;SDS011;70270;43.434;28.338;2023-08-24T05:21:06;19.52;;;16.08;;
80852;SDS011;70270;43.434;28.338;2023-08-24T05:23:54;19.55;;;14.90;;
80852;SDS011;70270;43.434;28.338;2023-08-24T05:26:39;17.45;;;14.43;;
80852;SDS011;70270;43.434;28.338;2023-08-24T05:29:24;16.20;;;13.30;;
80852;SDS011;70270;43.434;28.338;2023-08-24T05:32:09;28.13;;;14.20;;
80852;SDS011;70270;43.434;28.338;2023-08-24T05:34:54;17.35;;;11.82;;
80852;SDS011;70270;43.434;28.338;2023-08-24T05:37:38;13.73;;;11.55;;
80852;SDS011;70270;43.434;28.338;2023-08-24T05:40:23;15.98;;;11.77;;
80852;SDS011;70270;43.434;28.338;2023-08-24T05:43:07;15.05;;;11.23;;
80852;SDS011;70270;43.434;28.338;2023-08-24T05:45:54;17.63;;;12.73;;
80852;SDS011;70270;43.434;28.338;2023-08-24T05:54:08;17.98;;;13.13;;
80852;SDS011;70270;43.434;28.338;2023-08-24T05:56:53;15.43;;;12.85;;
80852;SDS011;70270;43.434;28.338;2023-08-24T05:59:37;17.88;;;13.30;;
80852;SDS011;70270;43.434;28.338;2023-08-24T06:02:21;15.68;;;13.32;;
80852;SDS011;70270;43.434;28.338;2023-08-24T06:05:06;15.93;;;11.98;;
80852;SDS011;70270;43.434;28.338;2023-08-24T06:07:53;16.92;;;12.50;;
80852;SDS011;70270;43.434;28.338;2023-08-24T06:10:38;15.15;;;12.38;;
80852;SDS011;70270;43.434;28.338;2023-08-24T06:13:23;14.15;;;12.65;;
80852;SDS011;70270;43.434;28.338;2023-08-24T06:16:10;16.73;;;12.77;;
80852;SDS011;70270;43.434;28.338;2023-08-24T06:18:55;15.73;;;12.00;;
80852;SDS011;70270;43.434;28.338;2023-08-24T06:21:39;19.17;;;13.25;;
80852;SDS011;70270;43.434;28.338;2023-08-24T06:24:24;16.33;;;13.38;;
80852;SDS011;70270;43.434;28.338;2023-08-24T06:27:08;15.32;;;13.65;;
80852;SDS011;70270;43.434;28.338;2023-08-24T06:29:53;19.40;;;16.05;;
80852;SDS011;70270;43.434;28.338;2023-08-24T06:32:37;22.67;;;15.10;;
80852;SDS011;70270;43.434;28.338;2023-08-24T06:35:25;19.60;;;15.35;;
80852;SDS011;70270;43.434;28.338;2023-08-24T06:38:09;18.05;;;14.63;;
80852;SDS011;70270;43.434;28.338;2023-08-24T06:40:53;21.17;;;14.82;;
80852;SDS011;70270;43.434;28.338;2023-08-24T06:43:38;17.65;;;13.63;;
80852;SDS011;70270;43.434;28.338;2023-08-24T06:46:23;17.40;;;14.70;;
80852;SDS011;70270;43.434;28.338;2023-08-24T06:49:07;20.83;;;15.10;;
80852;SDS011;70270;43.434;28.338;2023-08-24T06:51:52;16.67;;;13.77;;
80852;SDS011;70270;43.434;28.338;2023-08-24T06:54:36;15.55;;;13.93;;
80852;SDS011;70270;43.434;28.338;2023-08-24T06:57:22;21.70;;;13.68;;
80852;SDS011;70270;43.434;28.338;2023-08-24T07:00:06;16.63;;;12.50;;
80852;SDS011;70270;43.434;28.338;2023-08-24T07:02:57;17.98;;;11.98;;
80852;SDS011;70270;43.434;28.338;2023-08-24T07:05:41;16.17;;;11.68;;
80852;SDS011;70270;43.434;28.338;2023-08-24T07:08:26;15.55;;;10.77;;
80852;SDS011;70270;43.434;28.338;2023-08-24T07:11:10;13.02;;;10.50;;
80852;SDS011;70270;43.434;28.338;2023-08-24T07:13:57;13.20;;;10.52;;
80852;SDS011;70270;43.434;28.338;2023-08-24T07:16:42;16.95;;;9.65;;
80852;SDS011;70270;43.434;28.338;2023-08-24T07:19:29;16.20;;;9.95;;
80852;SDS011;70270;43.434;28.338;2023-08-24T07:22:14;16.58;;;10.70;;
80852;SDS011;70270;43.434;28.338;2023-08-24T07:24:59;13.43;;;11.20;;
80852;SDS011;70270;43.434;28.338;2023-08-24T07:27:44;16.52;;;11.48;;
80852;SDS011;70270;43.434;28.338;2023-08-24T07:30:31;17.05;;;11.13;;
80852;SDS011;70270;43.434;28.338;2023-08-24T07:33:16;20.15;;;12.60;;
80852;SDS011;70270;43.434;28.338;2023-08-24T07:36:00;18.92;;;13.82;;
80852;SDS011;70270;43.434;28.338;2023-08-24T07:38:48;20.80;;;16.45;;
80852;SDS011;70270;43.434;28.338;2023-08-24T07:41:32;20.70;;;17.33;;
80852;SDS011;70270;43.434;28.338;2023-08-24T07:44:17;22.23;;;16.02;;
80852;SDS011;70270;43.434;28.338;2023-08-24T07:47:01;22.83;;;16.67;;
80852;SDS011;70270;43.434;28.338;2023-08-24T07:49:46;22.92;;;17.95;;
80852;SDS011;70270;43.434;28.338;2023-08-24T07:52:31;21.98;;;17.98;;
80852;SDS011;70270;43.434;28.338;2023-08-24T07:55:16;24.38;;;17.25;;
80852;SDS011;70270;43.434;28.338;2023-08-24T07:58:07;26.80;;;18.42;;
80852;SDS011;70270;43.434;28.338;2023-08-24T08:00:54;23.95;;;17.85;;
80852;SDS011;70270;43.434;28.338;2023-08-24T08:03:39;23.77;;;18.10;;
80852;SDS011;70270;43.434;28.338;2023-08-24T08:06:24;25.73;;;19.27;;
80852;SDS011;70270;43.434;28.338;2023-08-24T08:09:09;26.48;;;19.38;;
80852;SDS011;70270;43.434;28.338;2023-08-24T08:11:53;23.25;;;18.58;;
80852;SDS011;70270;43.434;28.338;2023-08-24T08:14:38;27.65;;;19.45;;
80852;SDS011;70270;43.434;28.338;2023-08-24T08:17:22;21.98;;;19.08;;
80852;SDS011;70270;43.434;28.338;2023-08-24T08:20:07;25.55;;;18.92;;
80852;SDS011;70270;43.434;28.338;2023-08-24T08:22:52;21.98;;;18.42;;
80852;SDS011;70270;43.434;28.338;2023-08-24T08:25:36;27.63;;;19.33;;
80852;SDS011;70270;43.434;28.338;2023-08-24T08:28:21;22.85;;;18.85;;
80852;SDS011;70270;43.434;28.338;2023-08-24T08:31:06;23.70;;;18.50;;
80852;SDS011;70270;43.434;28.338;2023-08-24T08:33:51;24.13;;;18.70;;
80852;SDS011;70270;43.434;28.338;2023-08-24T08:36:35;23.48;;;18.10;;
80852;SDS011;70270;43.434;28.338;2023-08-24T08:39:20;19.98;;;17.52;;
80852;SDS011;70270;43.434;28.338;2023-08-24T08:42:04;20.10;;;16.38;;
80852;SDS011;70270;43.434;28.338;2023-08-24T08:44:55;21.30;;;16.85;;
80852;SDS011;70270;43.434;28.338;2023-08-24T08:47:48;21.02;;;17.80;;
80852;SDS011;70270;43.434;28.338;2023-08-24T08:50:45;23.85;;;17.90;;
80852;SDS011;70270;43.434;28.338;2023-08-24T08:53:35;22.13;;;17.45;;
80852;SDS011;70270;43.434;28.338;2023-08-24T08:56:21;24.08;;;19.63;;
80852;SDS011;70270;43.434;28.338;2023-08-24T08:59:07;24.85;;;20.38;;
80852;SDS011;70270;43.434;28.338;2023-08-24T09:02:03;22.40;;;17.55;;
80852;SDS011;70270;43.434;28.338;2023-08-24T09:04:49;23.02;;;19.35;;
80852;SDS011;70270;43.434;28.338;2023-08-24T09:07:40;24.65;;;20.73;;
80852;SDS011;70270;43.434;28.338;2023-08-24T09:10:25;24.50;;;18.65;;
80852;SDS011;70270;43.434;28.338;2023-08-24T09:13:10;25.50;;;18.48;;
80852;SDS011;70270;43.434;28.338;2023-08-24T09:16:02;23.17;;;17.52;;
80852;SDS011;70270;43.434;28.338;2023-08-24T09:18:55;27.00;;;20.27;;
80852;SDS011;70270;43.434;28.338;2023-08-24T09:21:42;23.55;;;17.17;;
80852;SDS011;70270;43.434;28.338;2023-08-24T09:24:30;24.08;;;17.55;;
80852;SDS011;70270;43.434;28.338;2023-08-24T09:30:01;21.38;;;14.77;;
80852;SDS011;70270;43.434;28.338;2023-08-24T09:32:49;19.20;;;16.13;;
80852;SDS011;70270;43.434;28.338;2023-08-24T09:35:34;18.77;;;15.98;;
80852;SDS011;70270;43.434;28.338;2023-08-24T09:38:22;16.38;;;13.68;;
80852;SDS011;70270;43.434;28.338;2023-08-24T09:41:07;21.38;;;15.25;;
80852;SDS011;70270;43.434;28.338;2023-08-24T09:43:52;17.50;;;14.77;;
80852;SDS011;70270;43.434;28.338;2023-08-24T09:46:37;19.88;;;15.73;;
80852;SDS011;70270;43.434;28.338;2023-08-24T09:49:22;17.65;;;14.60;;
80852;SDS011;70270;43.434;28.338;2023-08-24T09:52:07;19.08;;;15.38;;
80852;SDS011;70270;43.434;28.338;2023-08-24T09:54:52;18.48;;;14.90;;
80852;SDS011;70270;43.434;28.338;2023-08-24T09:57:38;18.52;;;14.95;;
80852;SDS011;70270;43.434;28.338;2023-08-24T10:00:23;18.15;;;15.40;;
80852;SDS011;70270;43.434;28.338;2023-08-24T10:03:09;17.55;;;15.73;;
80852;SDS011;70270;43.434;28.338;2023-08-24T10:08:47;18.17;;;14.20;;
80852;SDS011;70270;43.434;28.338;2023-08-24T10:11:36;17.10;;;14.35;;
80852;SDS011;70270;43.434;28.338;2023-08-24T10:14:29;14.63;;;12.63;;
80852;SDS011;70270;43.434;28.338;2023-08-24T10:17:16;14.75;;;13.07;;
80852;SDS011;70270;43.434;28.338;2023-08-24T10:20:01;14.57;;;11.98;;
80852;SDS011;70270;43.434;28.338;2023-08-24T10:22:49;17.67;;;13.73;;
80852;SDS011;70270;43.434;28.338;2023-08-24T10:25:35;14.27;;;10.90;;
80852;SDS011;70270;43.434;28.338;2023-08-24T10:28:23;14.13;;;12.60;;
80852;SDS011;70270;43.434;28.338;2023-08-24T10:31:09;17.00;;;13.38;;
80852;SDS011;70270;43.434;28.338;2023-08-24T10:33:54;14.68;;;12.38;;
80852;SDS011;70270;43.434;28.338;2023-08-24T10:36:39;18.13;;;12.57;;
80852;SDS011;70270;43.434;28.338;2023-08-24T10:39:28;14.30;;;11.20;;
80852;SDS011;70270;43.434;28.338;2023-08-24T10:42:13;12.95;;;10.90;;
80852;SDS011;70270;43.434;28.338;2023-08-24T10:45:00;15.88;;;13.30;;
80852;SDS011;70270;43.434;28.338;2023-08-24T10:47:46;23.42;;;15.63;;
80852;SDS011;70270;43.434;28.338;2023-08-24T10:50:30;18.23;;;13.65;;
80852;SDS011;70270;43.434;28.338;2023-08-24T10:53:31;16.65;;;13.38;;
80852;SDS011;70270;43.434;28.338;2023-08-24T10:56:24;14.38;;;12.35;;
80852;SDS011;70270;43.434;28.338;2023-08-24T10:59:15;18.15;;;14.20;;
80852;SDS011;70270;43.434;28.338;2023-08-24T11:02:01;16.63;;;11.40;;
80852;SDS011;70270;43.434;28.338;2023-08-24T11:05:04;20.40;;;12.35;;
80852;SDS011;70270;43.434;28.338;2023-08-24T11:08:04;14.25;;;11.40;;
80852;SDS011;70270;43.434;28.338;2023-08-24T11:10:49;19.77;;;15.27;;
80852;SDS011;70270;43.434;28.338;2023-08-24T11:13:34;19.15;;;14.63;;
80852;SDS011;70270;43.434;28.338;2023-08-24T11:19:22;19.77;;;15.95;;
80852;SDS011;70270;43.434;28.338;2023-08-24T11:22:09;19.13;;;17.13;;
80852;SDS011;70270;43.434;28.338;2023-08-24T11:24:54;20.73;;;16.80;;
80852;SDS011;70270;43.434;28.338;2023-08-24T11:27:39;26.75;;;17.40;;
80852;SDS011;70270;43.434;28.338;2023-08-24T11:30:26;19.75;;;17.25;;
80852;SDS011;70270;43.434;28.338;2023-08-24T11:33:11;17.40;;;15.48;;
80852;SDS011;70270;43.434;28.338;2023-08-24T11:35:59;18.80;;;15.50;;
80852;SDS011;70270;43.434;28.338;2023-08-24T11:38:49;20.58;;;16.90;;
80852;SDS011;70270;43.434;28.338;2023-08-24T11:41:36;16.35;;;14.57;;
80852;SDS011;70270;43.434;28.338;2023-08-24T11:44:23;19.38;;;16.13;;
80852;SDS011;70270;43.434;28.338;2023-08-24T11:47:08;19.80;;;15.85;;
80852;SDS011;70270;43.434;28.338;2023-08-24T11:49:55;20.63;;;16.23;;
80852;SDS011;70270;43.434;28.338;2023-08-24T11:52:41;21.60;;;17.45;;
80852;SDS011;70270;43.434;28.338;2023-08-24T11:55:26;20.00;;;16.27;;
80852;SDS011;70270;43.434;28.338;2023-08-24T11:58:14;18.77;;;16.75;;
80852;SDS011;70270;43.434;28.338;2023-08-24T12:01:02;19.52;;;15.25;;
80852;SDS011;70270;43.434;28.338;2023-08-24T12:03:47;20.70;;;15.52;;
80852;SDS011;70270;43.434;28.338;2023-08-24T12:06:32;24.02;;;16.33;;
80852;SDS011;70270;43.434;28.338;2023-08-24T12:09:16;19.05;;;17.08;;
80852;SDS011;70270;43.434;28.338;2023-08-24T12:12:01;17.05;;;15.35;;
80852;SDS011;70270;43.434;28.338;2023-08-24T12:14:48;20.02;;;15.95;;
80852;SDS011;70270;43.434;28.338;2023-08-24T12:17:42;20.00;;;16.33;;
80852;SDS011;70270;43.434;28.338;2023-08-24T12:20:26;18.35;;;16.45;;
80852;SDS011;70270;43.434;28.338;2023-08-24T12:23:14;20.17;;;17.40;;
80852;SDS011;70270;43.434;28.338;2023-08-24T12:25:59;21.23;;;16.85;;
80852;SDS011;70270;43.434;28.338;2023-08-24T12:28:43;23.50;;;15.55;;
80852;SDS011;70270;43.434;28.338;2023-08-24T12:31:28;19.33;;;15.50;;
80852;SDS011;70270;43.434;28.338;2023-08-24T12:34:15;20.10;;;16.45;;
80852;SDS011;70270;43.434;28.338;2023-08-24T12:37:01;19.77;;;16.13;;
80852;SDS011;70270;43.434;28.338;2023-08-24T12:39:45;21.13;;;16.42;;
80852;SDS011;70270;43.434;28.338;2023-08-24T12:42:30;18.92;;;16.80;;
80852;SDS011;70270;43.434;28.338;2023-08-24T12:45:14;24.83;;;17.83;;
80852;SDS011;70270;43.434;28.338;2023-08-24T12:47:59;22.83;;;18.48;;
80852;SDS011;70270;43.434;28.338;2023-08-24T12:50:43;25.48;;;18.52;;
80852;SDS011;70270;43.434;28.338;2023-08-24T12:53:28;22.55;;;18.70;;
80852;SDS011;70270;43.434;28.338;2023-08-24T12:56:15;21.77;;;17.73;;
80852;SDS011;70270;43.434;28.338;2023-08-24T12:59:00;22.63;;;18.63;;
80852;SDS011;70270;43.434;28.338;2023-08-24T13:01:45;20.83;;;17.55;;
80852;SDS011;70270;43.434;28.338;2023-08-24T13:04:31;21.20;;;16.75;;
80852;SDS011;70270;43.434;28.338;2023-08-24T13:07:16;19.77;;;16.50;;
80852;SDS011;70270;43.434;28.338;2023-08-24T13:10:01;18.67;;;16.02;;
80852;SDS011;70270;43.434;28.338;2023-08-24T13:12:46;17.60;;;13.98;;
80852;SDS011;70270;43.434;28.338;2023-08-24T13:15:30;21.48;;;14.50;;
80852;SDS011;70270;43.434;28.338;2023-08-24T13:18:14;17.92;;;14.77;;
80852;SDS011;70270;43.434;28.338;2023-08-24T13:20:59;18.95;;;14.80;;
80852;SDS011;70270;43.434;28.338;2023-08-24T13:23:43;18.90;;;15.45;;
80852;SDS011;70270;43.434;28.338;2023-08-24T13:26:28;21.48;;;14.05;;
80852;SDS011;70270;43.434;28.338;2023-08-24T13:29:12;17.20;;;13.80;;
80852;SDS011;70270;43.434;28.338;2023-08-24T13:31:57;19.17;;;14.73;;
80852;SDS011;70270;43.434;28.338;2023-08-24T13:34:41;20.20;;;14.55;;
80852;SDS011;70270;43.434;28.338;2023-08-24T13:37:30;17.20;;;14.68;;
80852;SDS011;70270;43.434;28.338;2023-08-24T13:40:15;17.75;;;15.30;;
80852;SDS011;70270;43.434;28.338;2023-08-24T13:43:01;18.35;;;15.23;;
80852;SDS011;70270;43.434;28.338;2023-08-24T13:45:48;27.15;;;16.38;;
80852;SDS011;70270;43.434;28.338;2023-08-24T13:48:33;17.73;;;14.88;;
80852;SDS011;70270;43.434;28.338;2023-08-24T13:51:18;16.52;;;14.63;;
80852;SDS011;70270;43.434;28.338;2023-08-24T13:54:03;17.23;;;13.30;;
80852;SDS011;70270;43.434;28.338;2023-08-24T13:56:56;24.30;;;15.45;;
80852;SDS011;70270;43.434;28.338;2023-08-24T13:59:42;24.48;;;15.10;;
80852;SDS011;70270;43.434;28.338;2023-08-24T14:02:29;20.52;;;14.07;;
80852;SDS011;70270;43.434;28.338;2023-08-24T14:05:16;15.95;;;13.40;;
80852;SDS011;70270;43.434;28.338;2023-08-24T14:08:00;18.63;;;13.45;;
80852;SDS011;70270;43.434;28.338;2023-08-24T14:10:49;20.73;;;13.25;;
80852;SDS011;70270;43.434;28.338;2023-08-24T14:13:33;16.98;;;12.90;;
80852;SDS011;70270;43.434;28.338;2023-08-24T14:16:17;18.23;;;14.10;;
80852;SDS011;70270;43.434;28.338;2023-08-24T14:19:02;18.73;;;13.18;;
80852;SDS011;70270;43.434;28.338;2023-08-24T14:21:47;21.73;;;14.65;;
80852;SDS011;70270;43.434;28.338;2023-08-24T14:24:31;18.15;;;13.82;;
80852;SDS011;70270;43.434;28.338;2023-08-24T14:27:18;19.35;;;13.57;;
80852;SDS011;70270;43.434;28.338;2023-08-24T14:30:03;15.77;;;12.10;;
80852;SDS011;70270;43.434;28.338;2023-08-24T14:32:47;19.77;;;13.82;;
80852;SDS011;70270;43.434;28.338;2023-08-24T14:35:32;19.77;;;13.57;;
80852;SDS011;70270;43.434;28.338;2023-08-24T14:38:17;15.88;;;12.82;;
80852;SDS011;70270;43.434;28.338;2023-08-24T14:41:04;16.92;;;13.07;;
80852;SDS011;70270;43.434;28.338;2023-08-24T14:43:48;21.60;;;14.25;;
80852;SDS011;70270;43.434;28.338;2023-08-24T14:46:33;18.67;;;13.20;;
80852;SDS011;70270;43.434;28.338;2023-08-24T14:49:17;16.75;;;13.88;;
80852;SDS011;70270;43.434;28.338;2023-08-24T14:52:02;17.75;;;12.73;;
80852;SDS011;70270;43.434;28.338;2023-08-24T14:54:47;21.52;;;13.70;;
80852;SDS011;70270;43.434;28.338;2023-08-24T14:57:32;17.80;;;13.15;;
80852;SDS011;70270;43.434;28.338;2023-08-24T15:00:16;17.45;;;14.52;;
80852;SDS011;70270;43.434;28.338;2023-08-24T15:03:04;18.95;;;12.13;;
80852;SDS011;70270;43.434;28.338;2023-08-24T15:08:50;19.52;;;14.82;;
80852;SDS011;70270;43.434;28.338;2023-08-24T15:11:34;18.08;;;13.50;;
80852;SDS011;70270;43.434;28.338;2023-08-24T15:14:19;21.50;;;13.48;;
80852;SDS011;70270;43.434;28.338;2023-08-24T15:17:03;19.42;;;14.90;;
80852;SDS011;70270;43.434;28.338;2023-08-24T15:19:51;37.55;;;27.10;;
80852;SDS011;70270;43.434;28.338;2023-08-24T15:22:41;15.68;;;12.98;;
80852;SDS011;70270;43.434;28.338;2023-08-24T15:25:26;18.33;;;13.43;;
80852;SDS011;70270;43.434;28.338;2023-08-24T15:28:10;16.67;;;12.93;;
80852;SDS011;70270;43.434;28.338;2023-08-24T15:30:55;19.48;;;14.05;;
80852;SDS011;70270;43.434;28.338;2023-08-24T15:33:41;17.52;;;12.48;;
80852;SDS011;70270;43.434;28.338;2023-08-24T15:36:26;20.40;;;15.10;;
80852;SDS011;70270;43.434;28.338;2023-08-24T15:39:11;17.05;;;13.52;;
80852;SDS011;70270;43.434;28.338;2023-08-24T15:41:56;17.42;;;13.70;;
80852;SDS011;70270;43.434;28.338;2023-08-24T15:44:40;19.58;;;12.95;;
80852;SDS011;70270;43.434;28.338;2023-08-24T15:47:26;19.67;;;14.50;;
80852;SDS011;70270;43.434;28.338;2023-08-24T15:50:11;18.88;;;14.15;;
80852;SDS011;70270;43.434;28.338;2023-08-24T15:52:56;18.00;;;13.88;;
80852;SDS011;70270;43.434;28.338;2023-08-24T15:55:44;21.60;;;14.23;;
80852;SDS011;70270;43.434;28.338;2023-08-24T15:58:28;24.92;;;14.73;;
80852;SDS011;70270;43.434;28.338;2023-08-24T16:01:13;18.73;;;14.05;;
80852;SDS011;70270;43.434;28.338;2023-08-24T16:03:57;22.50;;;14.40;;
80852;SDS011;70270;43.434;28.338;2023-08-24T16:06:42;22.02;;;14.48;;
80852;SDS011;70270;43.434;28.338;2023-08-24T16:09:27;17.85;;;13.35;;
80852;SDS011;70270;43.434;28.338;2023-08-24T16:12:11;18.40;;;13.63;;
80852;SDS011;70270;43.434;28.338;2023-08-24T16:14:56;22.02;;;13.48;;
80852;SDS011;70270;43.434;28.338;2023-08-24T16:17:40;19.48;;;13.80;;
80852;SDS011;70270;43.434;28.338;2023-08-24T16:20:25;21.45;;;13.43;;
80852;SDS011;70270;43.434;28.338;2023-08-24T16:23:09;20.20;;;14.68;;
80852;SDS011;70270;43.434;28.338;2023-08-24T16:25:55;19.63;;;15.05;;
80852;SDS011;70270;43.434;28.338;2023-08-24T16:28:39;19.02;;;13.50;;